Time;durP1;ratioP1;P1;durP2;ratioP2;P2;SDS_P1;SDS_P2;PMS_P1;PMS_P2;Temp;Humidity;BMP_temperature;BMP_pressure;BME280_temperature;BME280_humidity;BME280_pressure;Samples;Min_cycle;Max_cycle;Signal;HPM_P1;HPM_P2
2022/01/17 00:02:19;;;;;;;22.50;13.73;;;20.90;50.50;;;;;;5098962;28;20045;-71
2022/01/17 00:04:47;;;;;;;19.52;13.38;;;21.00;50.50;;;;;;5098902;28;20032;-71
2022/01/17 00:07:13;;;;;;;22.15;12.90;;;20.90;50.50;;;;;;5098814;28;20051;-71
2022/01/17 00:09:39;;;;;;;25.83;13.02;;;21.00;50.30;;;;;;5098747;28;20067;-71
2022/01/17 00:12:06;;;;;;;19.98;13.95;;;20.90;50.30;;;;;;5098908;28;20048;-71
2022/01/17 00:14:39;;;;;;;25.27;13.77;;;21.00;50.10;;;;;;5098823;28;20044;-71
2022/01/17 00:19:44;;;;;;;20.85;13.20;;;20.80;50.00;;;;;;5098796;28;20041;-71
2022/01/17 00:22:13;;;;;;;21.88;12.80;;;20.90;50.10;;;;;;5098694;28;20055;-71
2022/01/17 00:24:41;;;;;;;18.85;10.57;;;20.70;50.10;;;;;;5098408;28;20036;-71
2022/01/17 00:27:07;;;;;;;20.73;11.98;;;20.70;50.10;;;;;;5097692;28;20038;-71
2022/01/17 00:29:34;;;;;;;22.05;12.13;;;20.70;50.00;;;;;;5098396;28;20060;-71
2022/01/17 00:32:01;;;;;;;26.42;11.23;;;20.80;50.00;;;;;;5098257;28;20049;-71
2022/01/17 00:34:28;;;;;;;19.85;10.93;;;20.60;49.90;;;;;;5098321;28;20481;-70
2022/01/17 00:36:54;;;;;;;22.80;11.95;;;20.60;49.90;;;;;;5097985;28;20049;-71
2022/01/17 00:39:20;;;;;;;17.55;10.65;;;20.70;50.10;;;;;;5098382;28;20104;-71
2022/01/17 00:41:46;;;;;;;20.92;10.73;;;20.60;49.90;;;;;;5098286;28;20025;-71
2022/01/17 00:44:16;;;;;;;19.08;10.18;;;20.80;50.00;;;;;;5098123;28;20041;-71
2022/01/17 00:46:42;;;;;;;16.90;10.65;;;20.70;49.90;;;;;;5098114;28;20045;-71
2022/01/17 00:49:08;;;;;;;16.48;9.98;;;20.80;49.80;;;;;;5098059;28;20036;-71
2022/01/17 00:51:34;;;;;;;17.42;10.57;;;20.70;49.70;;;;;;5097947;28;20048;-70
2022/01/17 00:54:00;;;;;;;19.13;9.35;;;20.70;49.60;;;;;;5098066;28;20054;-71
2022/01/17 00:56:26;;;;;;;15.60;10.02;;;20.80;49.40;;;;;;5097904;28;20045;-71
2022/01/17 00:58:52;;;;;;;15.75;9.35;;;20.80;49.30;;;;;;5097830;28;20067;-71
2022/01/17 01:01:18;;;;;;;12.93;8.52;;;20.70;49.30;;;;;;5097731;28;20044;-71
2022/01/17 01:03:45;;;;;;;18.13;10.10;;;20.80;49.30;;;;;;5097583;28;20037;-71
2022/01/17 01:06:12;;;;;;;24.58;10.90;;;20.90;49.30;;;;;;5097589;28;20101;-71
2022/01/17 01:08:38;;;;;;;19.20;10.43;;;20.60;49.20;;;;;;5097598;28;20066;-71
2022/01/17 01:11:04;;;;;;;19.27;10.70;;;20.80;49.30;;;;;;5097714;28;20108;-70
2022/01/17 01:13:31;;;;;;;14.85;9.25;;;20.60;49.30;;;;;;5097443;28;20043;-71
2022/01/17 01:29:23;;;;;;;16.42;9.27;;;20.60;49.20;;;;;;5097422;28;20092;-70
2022/01/17 01:31:58;;;;;;;19.17;9.85;;;20.60;49.10;;;;;;5097076;28;20056;-70
2022/01/17 01:34:47;;;;;;;19.45;9.73;;;20.70;49.10;;;;;;5097074;28;20044;-71
2022/01/17 01:37:13;;;;;;;14.38;9.65;;;20.60;48.90;;;;;;5096982;28;20048;-70
2022/01/17 01:39:39;;;;;;;15.23;9.32;;;20.70;48.90;;;;;;5097191;28;20071;-70
2022/01/17 01:42:15;;;;;;;19.67;9.77;;;20.50;48.80;;;;;;5096641;28;20040;-70
2022/01/17 01:44:43;;;;;;;16.48;9.80;;;20.60;48.70;;;;;;5096742;28;20062;-70
2022/01/17 01:47:10;;;;;;;14.20;8.98;;;20.60;48.70;;;;;;5096575;28;20040;-71
2022/01/17 01:49:36;;;;;;;13.00;8.50;;;20.70;48.80;;;;;;5097016;28;20051;-70
2022/01/17 01:52:03;;;;;;;16.23;10.30;;;20.60;48.60;;;;;;5096849;28;20036;-71
2022/01/17 01:54:29;;;;;;;16.48;9.93;;;20.50;48.60;;;;;;5096356;28;20043;-71
2022/01/17 01:56:57;;;;;;;15.55;9.32;;;20.60;48.70;;;;;;5096203;28;20048;-70
2022/01/17 01:59:24;;;;;;;17.90;9.85;;;20.50;48.80;;;;;;5096575;28;20055;-70
2022/01/17 02:01:52;;;;;;;14.52;8.82;;;20.60;48.80;;;;;;5096748;28;20044;-70
2022/01/17 02:04:19;;;;;;;15.95;9.75;;;20.50;48.90;;;;;;5096314;28;20045;-70
2022/01/17 02:06:46;;;;;;;19.95;9.65;;;20.30;48.80;;;;;;5096816;28;20094;-70
2022/01/17 02:09:12;;;;;;;13.57;8.98;;;20.30;48.80;;;;;;5096610;28;20051;-70
2022/01/17 02:11:39;;;;;;;15.90;9.95;;;20.40;48.80;;;;;;5096720;28;20072;-70
2022/01/17 02:14:06;;;;;;;16.52;9.55;;;20.30;48.80;;;;;;5096536;28;20048;-71
2022/01/17 02:16:33;;;;;;;18.40;9.77;;;20.30;48.70;;;;;;5096493;28;20072;-70
2022/01/17 02:18:59;;;;;;;15.35;9.15;;;20.30;48.70;;;;;;5096221;28;20044;-70
2022/01/17 02:23:59;;;;;;;17.23;9.63;;;20.30;48.50;;;;;;5096495;28;20043;-70
2022/01/17 02:26:26;;;;;;;14.80;9.60;;;20.30;48.40;;;;;;5096596;28;20063;-70
2022/01/17 02:28:54;;;;;;;18.85;10.43;;;20.30;48.40;;;;;;5096003;28;20070;-71
2022/01/17 02:31:23;;;;;;;13.68;9.70;;;20.30;48.30;;;;;;5096074;28;20072;-70
2022/01/17 02:33:51;;;;;;;15.25;9.43;;;20.40;48.30;;;;;;5096557;28;20047;-70
2022/01/17 02:36:17;;;;;;;16.00;9.05;;;20.40;48.20;;;;;;5096210;28;20045;-70
2022/01/17 02:38:43;;;;;;;18.63;8.80;;;20.40;48.10;;;;;;5099332;28;20047;-70
2022/01/17 02:41:11;;;;;;;14.52;8.73;;;20.40;48.10;;;;;;5100509;28;20104;-70
2022/01/17 02:43:38;;;;;;;14.98;8.77;;;20.30;48.30;;;;;;5100314;28;20051;-70
2022/01/17 02:48:34;;;;;;;16.83;8.75;;;20.30;48.30;;;;;;5100261;28;20044;-71
2022/01/17 02:51:02;;;;;;;15.75;9.93;;;20.30;48.40;;;;;;5100263;28;20037;-70
2022/01/17 02:53:30;;;;;;;18.48;9.25;;;20.20;48.30;;;;;;5100036;28;20040;-70
2022/01/17 02:56:05;;;;;;;15.98;9.15;;;20.20;48.20;;;;;;5100161;28;20055;-70
2022/01/17 02:58:33;;;;;;;17.25;8.88;;;20.20;48.30;;;;;;5099874;28;20036;-71
2022/01/17 03:01:02;;;;;;;14.57;9.48;;;20.10;48.30;;;;;;5099723;28;20080;-70
2022/01/17 03:03:30;;;;;;;17.00;10.45;;;20.20;48.10;;;;;;5100011;28;20044;-70
2022/01/17 03:05:58;;;;;;;15.77;8.77;;;20.20;48.10;;;;;;5099891;28;20040;-70
2022/01/17 03:08:28;;;;;;;16.10;8.65;;;20.10;48.00;;;;;;5099602;28;20049;-70
2022/01/17 03:10:54;;;;;;;12.85;8.40;;;20.20;47.80;;;;;;5100048;28;20040;-71
2022/01/17 03:13:24;;;;;;;12.63;9.00;;;20.20;47.70;;;;;;5099385;28;20048;-71
2022/01/17 03:15:57;;;;;;;15.82;9.13;;;20.30;47.80;;;;;;5099719;28;20036;-70
2022/01/17 03:18:25;;;;;;;18.23;9.80;;;20.20;47.70;;;;;;5099200;28;20079;-70
2022/01/17 03:20:51;;;;;;;18.60;9.52;;;20.30;47.70;;;;;;5099498;28;20060;-70
2022/01/17 03:23:17;;;;;;;16.80;10.02;;;20.30;47.60;;;;;;5098870;28;20047;-70
2022/01/17 03:25:44;;;;;;;18.10;9.70;;;20.40;47.60;;;;;;5099472;28;20060;-70
2022/01/17 03:28:11;;;;;;;16.70;9.35;;;20.30;47.60;;;;;;5099449;28;20481;-70
2022/01/17 03:30:37;;;;;;;16.23;9.65;;;20.30;47.60;;;;;;5099384;28;20051;-70
2022/01/17 03:33:08;;;;;;;15.10;9.60;;;20.30;47.70;;;;;;5098229;28;20051;-70
2022/01/17 03:35:38;;;;;;;16.52;9.57;;;20.10;47.70;;;;;;5098347;28;20067;-70
2022/01/17 03:38:06;;;;;;;19.42;9.85;;;20.10;47.80;;;;;;5098214;28;20036;-70
2022/01/17 03:40:32;;;;;;;12.77;8.57;;;20.10;47.80;;;;;;5098176;28;20040;-70
2022/01/17 03:42:59;;;;;;;14.38;9.23;;;20.20;47.80;;;;;;5098114;28;20036;-70
2022/01/17 03:45:25;;;;;;;16.02;9.77;;;20.10;47.80;;;;;;5097859;28;20039;-70
2022/01/17 03:47:52;;;;;;;17.25;10.60;;;20.10;47.90;;;;;;5097542;28;20051;-70
2022/01/17 03:50:21;;;;;;;16.30;9.40;;;20.10;47.80;;;;;;5097623;28;20066;-70
2022/01/17 03:52:48;;;;;;;14.88;9.30;;;20.10;47.70;;;;;;5097297;28;20045;-70
2022/01/17 03:55:16;;;;;;;17.55;10.27;;;20.20;47.60;;;;;;5097881;28;20052;-70
2022/01/17 03:57:44;;;;;;;23.48;11.15;;;20.10;47.60;;;;;;5097922;28;20060;-70
2022/01/17 04:00:16;;;;;;;18.30;10.02;;;20.20;47.40;;;;;;5097754;28;20036;-71
2022/01/17 04:02:42;;;;;;;19.15;10.88;;;20.10;47.40;;;;;;5097948;28;20040;-70
2022/01/17 04:05:09;;;;;;;20.20;11.00;;;20.10;47.20;;;;;;5097646;28;20047;-70
2022/01/17 04:07:35;;;;;;;22.60;11.32;;;20.20;47.10;;;;;;5097517;28;20609;-70
2022/01/17 04:10:02;;;;;;;21.65;11.98;;;20.10;47.10;;;;;;5097472;28;20073;-70
2022/01/17 04:12:28;;;;;;;20.42;11.30;;;20.20;47.20;;;;;;5097579;28;20058;-70
2022/01/17 04:14:56;;;;;;;20.83;11.75;;;20.20;47.20;;;;;;5097129;28;20032;-70
2022/01/17 04:17:27;;;;;;;21.08;11.00;;;20.10;47.30;;;;;;5097660;28;20036;-70
2022/01/17 04:20:02;;;;;;;17.42;11.52;;;20.10;47.40;;;;;;5097605;28;20044;-70
2022/01/17 04:22:35;;;;;;;20.15;11.93;;;20.00;47.40;;;;;;5097491;28;20028;-70
2022/01/17 04:25:04;;;;;;;17.67;10.68;;;20.00;47.50;;;;;;5097551;28;20040;-70
2022/01/17 04:27:30;;;;;;;20.23;11.70;;;20.00;47.60;;;;;;5097384;28;20045;-70
2022/01/17 04:29:56;;;;;;;16.60;11.63;;;19.90;47.60;;;;;;5097188;28;20037;-71
2022/01/17 04:32:22;;;;;;;23.75;11.63;;;19.90;47.70;;;;;;5056142;28;1179433;-69
2022/01/17 04:34:49;;;;;;;16.73;11.63;;;19.90;47.70;;;;;;5098368;28;20045;-71
2022/01/17 04:37:15;;;;;;;24.80;12.15;;;19.90;47.60;;;;;;5098167;28;20040;-69
2022/01/17 04:39:41;;;;;;;19.95;11.93;;;20.00;47.50;;;;;;5097345;28;20127;-71
2022/01/17 04:42:13;;;;;;;20.08;11.27;;;20.00;47.40;;;;;;5097508;28;20051;-71
2022/01/17 04:47:25;;;;;;;20.67;12.90;;;20.00;47.20;;;;;;5097398;28;20036;-70
2022/01/17 04:49:52;;;;;;;21.90;13.45;;;20.10;47.20;;;;;;5097745;28;20055;-70
2022/01/17 04:52:18;;;;;;;24.73;12.27;;;20.10;47.00;;;;;;5098106;28;20452;-70
2022/01/17 04:54:51;;;;;;;21.77;12.85;;;20.10;47.10;;;;;;5097748;28;20047;-70
2022/01/17 04:57:18;;;;;;;20.45;12.23;;;20.20;47.20;;;;;;5097127;28;20045;-70
2022/01/17 04:59:45;;;;;;;28.23;16.23;;;20.00;47.10;;;;;;5096759;28;20028;-70
2022/01/17 05:02:12;;;;;;;33.30;16.25;;;20.10;47.20;;;;;;5096733;28;20043;-70
2022/01/17 05:04:38;;;;;;;21.60;13.00;;;20.00;47.30;;;;;;5096868;28;20037;-70
2022/01/17 05:07:05;;;;;;;25.52;12.65;;;20.20;47.10;;;;;;5096700;28;20056;-71
2022/01/17 05:09:32;;;;;;;22.90;13.85;;;20.50;46.70;;;;;;5096718;28;20075;-70
2022/01/17 05:11:58;;;;;;;21.08;11.85;;;20.60;46.40;;;;;;5096204;28;20107;-70
2022/01/17 05:14:26;;;;;;;21.38;11.73;;;20.80;46.40;;;;;;5096857;28;20071;-70
2022/01/17 05:17:00;;;;;;;23.83;13.20;;;20.90;46.30;;;;;;5096708;28;20052;-69
2022/01/17 05:22:11;;;;;;;30.27;16.33;;;20.90;46.70;;;;;;5096625;28;20060;-70
2022/01/17 05:24:38;;;;;;;29.58;15.30;;;20.80;49.50;;;;;;5095512;28;20032;-70
2022/01/17 05:27:04;;;;;;;24.40;12.55;;;21.00;52.60;;;;;;5096673;28;20040;-73
2022/01/17 05:29:30;;;;;;;29.85;14.88;;;21.50;54.60;;;;;;5096571;28;20473;-73
2022/01/17 05:31:56;;;;;;;19.58;12.23;;;21.70;54.70;;;;;;5096345;28;20068;-74
2022/01/17 05:34:23;;;;;;;22.02;12.50;;;21.80;55.30;;;;;;5096607;28;20045;-75
2022/01/17 05:36:49;;;;;;;16.58;11.10;;;21.90;47.60;;;;;;5096506;28;20050;-75
2022/01/17 05:39:15;;;;;;;32.55;16.77;;;22.00;45.00;;;;;;5096254;28;20036;-71
2022/01/17 05:41:42;;;;;;;30.85;17.33;;;21.90;42.90;;;;;;5095985;28;20488;-70
2022/01/17 05:44:08;;;;;;;31.65;16.42;;;21.70;41.20;;;;;;5096236;28;20036;-70
2022/01/17 05:46:34;;;;;;;32.53;18.75;;;21.50;41.20;;;;;;5096270;28;20032;-71
2022/01/17 05:49:00;;;;;;;26.35;15.93;;;21.30;41.80;;;;;;5096006;28;20055;-70
2022/01/17 05:51:26;;;;;;;23.85;14.20;;;21.00;42.60;;;;;;5078995;28;20036;-70
2022/01/17 05:53:53;;;;;;;21.10;14.10;;;21.00;43.30;;;;;;5096056;28;20086;-70
2022/01/17 05:56:19;;;;;;;22.92;14.57;;;20.80;43.90;;;;;;5096346;28;20037;-70
2022/01/17 05:58:45;;;;;;;31.92;16.10;;;20.80;44.40;;;;;;5095822;28;20048;-71
2022/01/17 06:01:14;;;;;;;14.20;7.82;;;20.80;44.90;;;;;;5095242;28;20024;-69
2022/01/17 06:03:42;;;;;;;13.73;6.03;;;20.80;42.20;;;;;;5095139;28;20029;-67
2022/01/17 06:06:13;;;;;;;;;;;20.90;39.80;;;;;;5095792;28;20108;-69
2022/01/17 06:08:39;;;;;;;19.48;12.20;;;21.00;40.40;;;;;;5092094;28;19915;-70
2022/01/17 06:11:05;;;;;;;56.28;32.83;;;21.00;38.40;;;;;;5094949;28;20041;-70
2022/01/17 06:13:32;;;;;;;50.50;28.73;;;21.00;37.30;;;;;;5094462;28;20068;-72
2022/01/17 06:15:58;;;;;;;17.40;11.02;;;21.00;37.60;;;;;;5095229;28;20051;-70
2022/01/17 06:18:24;;;;;;;32.25;16.05;;;21.10;38.80;;;;;;5095004;28;20052;-70
2022/01/17 06:20:50;;;;;;;31.98;19.33;;;21.20;38.80;;;;;;5095166;28;20087;-70
2022/01/17 06:23:16;;;;;;;18.70;12.00;;;21.20;40.20;;;;;;5095309;28;20051;-71
2022/01/17 06:25:43;;;;;;;18.13;10.60;;;21.30;40.70;;;;;;5095026;28;20052;-70
2022/01/17 06:28:09;;;;;;;22.58;12.13;;;21.40;40.60;;;;;;5094953;28;20079;-70
2022/01/17 06:30:35;;;;;;;26.73;15.73;;;21.60;40.00;;;;;;5094846;28;20048;-68
2022/01/17 06:33:03;;;;;;;25.15;15.30;;;21.50;39.60;;;;;;5094959;28;20132;-70
2022/01/17 06:35:30;;;;;;;23.58;13.50;;;21.60;40.70;;;;;;5094890;28;20059;-75
2022/01/17 06:37:56;;;;;;;23.17;13.27;;;21.70;41.70;;;;;;5095293;28;20037;-71
2022/01/17 06:40:22;;;;;;;26.77;13.52;;;21.60;41.00;;;;;;5095492;28;20101;-70
2022/01/17 06:42:52;;;;;;;26.27;14.55;;;21.80;40.70;;;;;;5094983;28;20036;-71
2022/01/17 06:45:18;;;;;;;25.70;12.73;;;21.80;40.20;;;;;;5092604;28;20032;-70
2022/01/17 06:47:45;;;;;;;20.75;12.38;;;21.70;39.30;;;;;;5095715;28;20048;-70
2022/01/17 06:50:12;;;;;;;22.83;11.93;;;21.60;39.30;;;;;;5095532;28;20064;-70
2022/01/17 06:52:38;;;;;;;39.25;19.80;;;21.70;37.60;;;;;;5095758;28;20044;-72
2022/01/17 06:55:09;;;;;;;41.15;20.83;;;21.80;48.90;;;;;;5078157;28;20041;-71
2022/01/17 06:57:35;;;;;;;39.35;21.45;;;21.90;50.50;;;;;;5093916;28;20044;-72
2022/01/17 07:00:04;;;;;;;33.83;20.63;;;21.70;51.40;;;;;;5077800;28;20047;-71
2022/01/17 07:02:30;;;;;;;49.35;25.05;;;21.50;52.10;;;;;;5095001;28;20078;-71
2022/01/17 07:04:56;;;;;;;53.95;28.27;;;21.40;52.50;;;;;;5077736;28;20048;-73
2022/01/17 07:07:22;;;;;;;58.00;27.95;;;21.20;53.20;;;;;;5092813;28;20040;-72
2022/01/17 07:09:48;;;;;;;48.25;25.88;;;21.10;53.70;;;;;;5095055;28;20051;-74
2022/01/17 07:12:14;;;;;;;47.35;26.33;;;21.00;54.30;;;;;;5095204;28;20049;-71
2022/01/17 07:14:42;;;;;;;49.85;25.05;;;20.90;55.20;;;;;;5095067;28;20040;-74
2022/01/17 07:17:09;;;;;;;48.88;24.63;;;20.80;55.90;;;;;;5095001;28;20037;-73
2022/01/17 07:19:36;;;;;;;50.78;23.40;;;20.80;56.20;;;;;;5094908;28;20048;-73
2022/01/17 07:22:04;;;;;;;45.58;23.67;;;20.70;56.60;;;;;;5092429;28;20059;-72
2022/01/17 07:24:31;;;;;;;42.67;21.50;;;20.80;56.70;;;;;;5097278;28;20036;-73
2022/01/17 07:26:57;;;;;;;40.90;22.63;;;20.70;57.10;;;;;;5098833;28;20054;-74
2022/01/17 07:29:24;;;;;;;40.97;22.05;;;20.60;57.30;;;;;;5095774;28;20123;-71
2022/01/17 07:31:50;;;;;;;33.47;18.95;;;20.60;57.60;;;;;;5098701;28;20082;-70
2022/01/17 07:34:17;;;;;;;40.88;20.52;;;20.60;57.70;;;;;;5098734;28;20059;-71
2022/01/17 07:36:44;;;;;;;38.78;21.80;;;20.80;57.90;;;;;;5098475;28;20078;-70
2022/01/17 07:39:10;;;;;;;42.00;21.63;;;20.80;57.80;;;;;;5080780;28;20088;-72
2022/01/17 07:41:36;;;;;;;47.13;22.33;;;20.70;58.00;;;;;;5098373;28;20122;-73
2022/01/17 07:44:05;;;;;;;38.47;20.27;;;20.70;58.20;;;;;;5098365;28;20036;-73
2022/01/17 07:46:48;;;;;;;44.65;21.85;;;20.70;58.00;;;;;;5098687;28;20033;-73
2022/01/17 07:49:19;;;;;;;49.38;19.90;;;20.60;58.20;;;;;;5098767;28;20090;-72
2022/01/17 07:51:52;;;;;;;34.95;18.52;;;20.70;58.40;;;;;;5098390;28;20067;-72
2022/01/17 07:54:19;;;;;;;43.88;19.38;;;20.60;58.10;;;;;;5098471;28;20043;-71
2022/01/17 07:56:46;;;;;;;47.70;20.15;;;20.70;58.00;;;;;;5098453;28;20036;-72
2022/01/17 07:59:12;;;;;;;44.25;19.83;;;20.60;58.00;;;;;;5098359;28;20048;-72
2022/01/17 08:01:39;;;;;;;42.47;20.52;;;20.50;58.10;;;;;;5098351;28;20058;-71
2022/01/17 08:04:07;;;;;;;43.85;20.02;;;20.50;58.60;;;;;;5098402;28;20051;-71
2022/01/17 08:06:38;;;;;;;39.53;18.08;;;20.60;57.90;;;;;;5117889;28;20038;-72
2022/01/17 08:09:08;;;;;;;41.08;18.50;;;20.60;57.90;;;;;;5098337;28;20036;-73
2022/01/17 08:12:00;;;;;;;36.85;17.85;;;20.50;57.70;;;;;;5097338;28;20070;-73
2022/01/17 08:14:27;;;;;;;41.63;18.25;;;20.50;57.60;;;;;;5096215;28;20047;-73
2022/01/17 08:16:53;;;;;;;32.58;18.30;;;20.60;57.40;;;;;;5079728;28;20104;-71
2022/01/17 08:19:23;;;;;;;24.27;11.45;;;20.50;60.50;;;;;;5097133;28;20049;-71
2022/01/17 08:21:51;;;;;;;25.83;9.50;;;20.60;49.90;;;;;;5097050;28;20024;-73
2022/01/17 08:24:21;;;;;;;5.80;3.40;;;20.80;53.00;;;;;;5097413;28;20041;-70
2022/01/17 08:26:47;;;;;;;6.95;4.18;;;21.10;55.10;;;;;;5096955;28;20123;-71
2022/01/17 08:29:13;;;;;;;10.25;4.93;;;21.30;56.00;;;;;;5096272;28;20039;-71
2022/01/17 08:31:42;;;;;;;2.85;2.65;;;21.40;57.80;;;;;;5095967;28;20131;-71
2022/01/17 08:34:11;;;;;;;4.32;2.97;;;21.60;57.60;;;;;;5095785;28;20032;-71
2022/01/17 08:36:37;;;;;;;12.18;5.38;;;21.70;55.00;;;;;;5094766;28;20044;-71
2022/01/17 08:39:04;;;;;;;10.13;5.20;;;21.70;54.40;;;;;;5095864;28;20037;-71
2022/01/17 08:41:30;;;;;;;9.43;5.15;;;21.90;54.00;;;;;;5095938;28;20041;-74
2022/01/17 08:43:57;;;;;;;3.58;2.65;;;21.90;54.20;;;;;;5096288;28;20035;-74
2022/01/17 08:46:23;;;;;;;3.47;3.00;;;21.90;51.20;;;;;;5096701;28;20043;-73
2022/01/17 08:48:51;;;;;;;3.80;2.92;;;21.90;49.30;;;;;;5096587;28;20036;-73
2022/01/17 08:51:17;;;;;;;7.90;3.15;;;22.10;47.40;;;;;;5097348;28;20065;-72
2022/01/17 08:53:45;;;;;;;2.08;1.45;;;22.10;53.00;;;;;;5079548;28;20160;-72
2022/01/17 08:56:11;;;;;;;11.57;5.03;;;22.20;49.00;;;;;;5096612;28;20071;-73
2022/01/17 08:58:37;;;;;;;28.67;13.60;;;22.30;54.90;;;;;;5096435;28;20058;-72
2022/01/17 09:01:04;;;;;;;10.48;5.72;;;22.30;44.10;;;;;;5097255;28;20047;-72
2022/01/17 09:03:31;;;;;;;12.40;8.00;;;22.30;46.70;;;;;;5096970;28;20036;-70
2022/01/17 09:05:57;;;;;;;18.08;11.05;;;22.50;58.70;;;;;;5097175;28;20068;-72
2022/01/17 09:08:24;;;;;;;15.18;8.50;;;22.50;48.60;;;;;;5079790;28;20036;-72
2022/01/17 09:10:54;;;;;;;29.33;14.20;;;22.50;46.00;;;;;;5096162;28;20055;-71
2022/01/17 09:13:21;;;;;;;21.25;11.88;;;22.60;40.50;;;;;;5074654;28;20071;-77
2022/01/17 09:15:47;;;;;;;28.17;13.43;;;22.50;37.30;;;;;;5075954;28;20048;-72
2022/01/17 09:18:14;;;;;;;31.90;15.13;;;22.60;40.20;;;;;;5096369;28;20036;-75
2022/01/17 09:20:41;;;;;;;3.33;3.08;;;22.50;41.00;;;;;;5096764;28;20068;-74
2022/01/17 09:23:11;;;;;;;25.55;11.43;;;22.60;44.90;;;;;;5096574;28;20033;-71
2022/01/17 09:25:37;;;;;;;19.73;6.78;;;22.50;42.00;;;;;;5096363;28;20051;-69
2022/01/17 09:28:07;;;;;;;13.63;7.63;;;22.60;43.00;;;;;;5096450;28;20039;-70
2022/01/17 09:30:33;;;;;;;23.52;11.38;;;22.60;42.60;;;;;;5078696;28;20045;-73
2022/01/17 09:32:59;;;;;;;7.93;4.15;;;22.60;45.80;;;;;;5095712;28;20048;-78
2022/01/17 09:35:26;;;;;;;21.40;11.15;;;22.60;41.00;;;;;;5096526;28;20040;-70
2022/01/17 09:37:53;;;;;;;108.43;29.40;;;22.60;41.50;;;;;;5096044;28;20036;-70
2022/01/17 09:40:19;;;;;;;12.48;7.05;;;22.70;36.80;;;;;;5096423;28;20044;-78
2022/01/17 09:42:48;;;;;;;36.20;18.23;;;22.80;41.70;;;;;;5096230;28;20039;-69
2022/01/17 09:45:16;;;;;;;37.72;16.58;;;22.70;34.80;;;;;;5096050;28;20044;-69
2022/01/17 09:47:44;;;;;;;25.38;14.88;;;22.70;38.90;;;;;;5095535;28;20024;-70
2022/01/17 09:50:20;;;;;;;24.27;15.60;;;22.60;39.10;;;;;;5095943;28;20031;-70
2022/01/17 09:52:52;;;;;;;28.23;14.02;;;22.50;40.00;;;;;;5095855;28;20040;-69
2022/01/17 09:55:22;;;;;;;23.08;12.68;;;22.50;40.90;;;;;;5096100;28;20044;-70
2022/01/17 09:57:51;;;;;;;26.17;14.82;;;22.40;41.90;;;;;;5096067;28;20112;-72
2022/01/17 10:00:19;;;;;;;21.92;12.35;;;22.40;42.90;;;;;;5095993;28;20048;-71
2022/01/17 10:02:47;;;;;;;23.58;11.10;;;22.30;43.70;;;;;;5096127;28;20045;-72
2022/01/17 10:05:14;;;;;;;20.15;10.85;;;22.30;44.60;;;;;;5078796;28;20108;-72
2022/01/17 10:08:05;;;;;;;23.27;11.65;;;22.20;45.00;;;;;;5096146;28;20122;-73
2022/01/17 10:10:35;;;;;;;15.15;7.75;;;22.20;45.40;;;;;;5086203;28;20041;-72
2022/01/17 10:13:11;;;;;;;13.77;7.10;;;22.30;46.60;;;;;;5095964;28;20062;-71
2022/01/17 10:15:48;;;;;;;15.18;7.15;;;22.40;50.10;;;;;;5095908;28;20039;-72
2022/01/17 10:18:26;;;;;;;17.52;8.88;;;22.50;50.90;;;;;;5095771;28;20041;-72
2022/01/17 10:20:58;;;;;;;12.35;7.57;;;22.90;55.70;;;;;;5095434;28;20051;-71
2022/01/17 10:23:46;;;;;;;13.40;7.28;;;23.00;57.20;;;;;;5095780;28;20052;-70
2022/01/17 10:26:55;;;;;;;13.90;7.20;;;23.40;58.00;;;;;;5078312;28;20041;-70
2022/01/17 10:37:14;;;;;;;11.65;6.20;;;24.00;40.10;;;;;;5095344;28;20048;-71
2022/01/17 10:40:15;;;;;;;9.57;7.05;;;23.80;35.50;;;;;;5095706;28;20024;-72
2022/01/17 10:42:48;;;;;;;15.00;7.15;;;23.70;33.20;;;;;;5078361;28;20037;-71
2022/01/17 10:45:24;;;;;;;12.60;7.35;;;23.70;33.70;;;;;;5095459;28;20032;-72
2022/01/17 10:47:57;;;;;;;13.20;8.05;;;23.50;30.90;;;;;;5095547;28;20062;-72
2022/01/17 10:50:26;;;;;;;15.88;8.00;;;23.60;41.10;;;;;;5095543;28;20078;-72
2022/01/17 10:52:59;;;;;;;11.95;7.22;;;23.90;45.90;;;;;;5095304;28;20100;-73
2022/01/17 10:55:30;;;;;;;11.05;6.35;;;24.20;43.60;;;;;;5095490;28;20036;-74
2022/01/17 10:58:09;;;;;;;10.13;6.05;;;24.10;49.50;;;;;;5095332;28;20032;-72
2022/01/17 11:00:44;;;;;;;12.48;6.07;;;24.00;47.70;;;;;;5082102;28;20043;-71
2022/01/17 11:03:16;;;;;;;14.05;5.97;;;23.90;48.10;;;;;;5099494;28;20036;-70
2022/01/17 11:05:45;;;;;;;13.55;7.30;;;23.80;47.90;;;;;;5099221;28;20033;-70
2022/01/17 11:08:17;;;;;;;12.25;7.03;;;23.60;46.90;;;;;;5099262;28;20042;-70
2022/01/17 11:10:45;;;;;;;13.80;7.38;;;23.50;48.00;;;;;;5099252;28;20126;-70
2022/01/17 11:13:17;;;;;;;12.20;5.43;;;23.30;46.90;;;;;;5099023;28;20066;-70
2022/01/17 11:15:47;;;;;;;14.13;6.60;;;23.20;47.90;;;;;;5115136;28;20040;-68
2022/01/17 11:18:23;;;;;;;8.55;4.25;;;23.20;46.00;;;;;;5099702;28;20105;-70
2022/01/17 11:20:52;;;;;;;10.23;4.72;;;23.10;48.60;;;;;;5098999;28;20037;-70
2022/01/17 11:23:22;;;;;;;9.23;5.47;;;23.00;47.60;;;;;;5098887;28;20033;-70
2022/01/17 11:25:55;;;;;;;7.45;5.15;;;22.90;46.90;;;;;;5099092;28;20040;-70
2022/01/17 11:28:28;;;;;;;8.87;5.10;;;22.70;46.60;;;;;;5081616;28;20059;-70
2022/01/17 11:30:55;;;;;;;;;;;22.60;44.70;;;;;;5099266;28;20044;-70
2022/01/17 11:33:23;;;;;;;7.38;4.00;;;22.50;49.80;;;;;;5098629;28;19923;-69
2022/01/17 11:35:53;;;;;;;3.53;2.53;;;22.60;50.30;;;;;;5098863;28;20051;-70
2022/01/17 11:38:32;;;;;;;3.95;2.63;;;22.60;49.80;;;;;;5098557;28;20048;-69
2022/01/17 11:40:59;;;;;;;4.47;2.65;;;22.80;49.60;;;;;;5098658;28;20049;-70
2022/01/17 11:43:35;;;;;;;4.38;3.05;;;22.90;49.80;;;;;;5081150;28;20041;-69
2022/01/17 11:46:25;;;;;;;8.48;2.92;;;22.90;46.10;;;;;;5098826;28;20041;-69
2022/01/17 11:48:58;;;;;;;4.28;2.70;;;22.80;49.80;;;;;;5098664;28;20048;-70
2022/01/17 11:51:44;;;;;;;4.57;2.65;;;23.00;49.40;;;;;;5098402;28;20059;-70
2022/01/17 11:54:31;;;;;;;3.78;2.30;;;22.90;49.40;;;;;;5098416;28;20067;-69
2022/01/17 11:57:04;;;;;;;8.90;3.30;;;22.90;48.50;;;;;;5098167;28;20040;-69
2022/01/17 11:59:32;;;;;;;;;;;22.80;48.20;;;;;;5097913;28;20044;-69
2022/01/17 12:02:10;;;;;;;2.65;2.05;;;22.60;49.40;;;;;;5098393;28;19908;-69
2022/01/17 12:04:37;;;;;;;4.82;1.98;;;22.60;50.10;;;;;;5098345;28;20032;-70
2022/01/17 12:07:03;;;;;;;4.15;2.30;;;22.80;51.40;;;;;;5098460;28;20050;-71
2022/01/17 12:09:29;;;;;;;5.00;1.65;;;22.70;53.80;;;;;;5097834;28;20040;-71
2022/01/17 12:12:08;;;;;;;2.47;1.92;;;22.70;49.80;;;;;;5097870;28;20048;-70
2022/01/17 12:14:40;;;;;;;5.68;3.35;;;22.80;50.20;;;;;;5098250;28;20051;-70
2022/01/17 12:17:23;;;;;;;2.63;2.10;;;22.80;48.60;;;;;;5097223;28;20050;-69
2022/01/17 12:20:06;;;;;;;3.70;2.50;;;22.70;48.30;;;;;;5080616;28;20036;-68
2022/01/17 12:22:32;;;;;;;4.85;1.70;;;22.60;45.70;;;;;;5098016;28;20036;-68
2022/01/17 12:25:05;;;;;;;3.50;2.58;;;22.60;49.70;;;;;;5098078;28;20043;-68
2022/01/17 12:27:31;;;;;;;4.35;1.92;;;22.60;49.10;;;;;;5098159;28;20040;-68
2022/01/17 12:30:12;;;;;;;3.25;2.03;;;22.70;48.00;;;;;;5097985;28;20064;-68
2022/01/17 12:32:39;;;;;;;3.55;2.10;;;22.60;46.40;;;;;;5097713;28;20113;-69
2022/01/17 12:35:05;;;;;;;3.65;2.17;;;22.50;48.40;;;;;;5098077;28;20044;-68
2022/01/17 12:37:36;;;;;;;3.85;2.33;;;22.30;48.90;;;;;;5097268;28;20689;-68
2022/01/17 12:40:22;;;;;;;3.92;2.28;;;22.30;47.70;;;;;;5097449;28;20040;-68
2022/01/17 12:43:10;;;;;;;3.17;2.30;;;22.30;48.90;;;;;;5090721;28;20032;-68
2022/01/17 12:45:40;;;;;;;3.00;2.00;;;22.30;46.90;;;;;;5097637;28;20052;-68
2022/01/17 12:48:20;;;;;;;4.95;1.90;;;22.20;47.80;;;;;;5080065;28;20132;-68
2022/01/17 12:50:48;;;;;;;2.65;2.10;;;22.20;49.60;;;;;;5097522;28;20047;-68
2022/01/17 12:53:18;;;;;;;2.45;1.77;;;22.20;48.20;;;;;;5097186;28;20036;-68
2022/01/17 12:55:51;;;;;;;3.97;1.90;;;22.30;49.10;;;;;;5096830;28;20043;-68
2022/01/17 12:58:18;;;;;;;;;;;22.20;49.30;;;;;;5097791;28;20060;-68
2022/01/17 13:00:51;;;;;;;1.75;1.35;;;22.20;47.80;;;;;;5097096;28;19912;-68
2022/01/17 13:03:19;;;;;;;4.38;2.03;;;22.20;48.80;;;;;;5097288;28;20409;-68
2022/01/17 13:05:45;;;;;;;2.33;1.90;;;22.20;47.70;;;;;;5097061;28;20071;-68
2022/01/17 13:08:12;;;;;;;2.30;1.80;;;22.10;49.30;;;;;;5097147;28;20071;-68
2022/01/17 13:10:38;;;;;;;4.30;1.88;;;22.40;48.70;;;;;;5097171;28;20047;-68
2022/01/17 13:13:05;;;;;;;1.30;1.00;;;22.40;47.10;;;;;;5097045;28;20040;-68
2022/01/17 13:15:31;;;;;;;3.22;1.98;;;22.40;49.40;;;;;;5097051;28;20040;-68
2022/01/17 13:17:58;;;;;;;3.72;1.60;;;22.50;48.00;;;;;;5097083;28;20037;-68
2022/01/17 13:20:26;;;;;;;2.65;1.67;;;22.40;49.60;;;;;;5097032;28;20029;-68